Time;durP1;ratioP1;P1;durP2;ratioP2;P2;SDS_P1;SDS_P2;PMS_P1;PMS_P2;Temp;Humidity;BMP_temperature;BMP_pressure;BME280_temperature;BME280_humidity;BME280_pressure;Samples;Min_cycle;Max_cycle;Signal;HPM_P1;HPM_P2
2022/03/09 00:01:42;;;;;;;0.90;0.80;;;;;;;;;;1833308;78;26775;-42
2022/03/09 00:04:09;;;;;;;0.78;0.70;;;;;;;;;;1831684;78;26302;-44
2022/03/09 00:06:36;;;;;;;0.90;0.90;;;;;;;;;;1821886;78;26715;-44
2022/03/09 00:09:04;;;;;;;1.15;0.80;;;;;;;;;;1837965;78;26290;-40
2022/03/09 00:11:31;;;;;;;0.78;0.78;;;;;;;;;;1829479;78;26296;-41
2022/03/09 00:13:59;;;;;;;1.30;0.80;;;;;;;;;;1829132;78;26256;-46
2022/03/09 00:16:26;;;;;;;2.20;0.80;;;;;;;;;;1832108;78;26204;-43
2022/03/09 00:18:54;;;;;;;0.90;0.90;;;;;;;;;;1826397;78;26299;-43
2022/03/09 00:21:21;;;;;;;0.88;0.88;;;;;;;;;;1825600;76;26751;-46
2022/03/09 00:23:49;;;;;;;0.70;0.70;;;;;;;;;;1833139;78;26331;-45
2022/03/09 00:26:16;;;;;;;0.72;0.72;;;;;;;;;;1832263;78;26451;-46
2022/03/09 00:28:43;;;;;;;0.98;0.98;;;;;;;;;;1834375;78;26287;-48
2022/03/09 00:31:11;;;;;;;0.70;0.70;;;;;;;;;;1828113;78;26340;-45
2022/03/09 00:33:38;;;;;;;0.85;0.85;;;;;;;;;;1833577;77;26299;-45
2022/03/09 00:36:06;;;;;;;0.70;0.70;;;;;;;;;;1833329;77;26703;-41
2022/03/09 00:38:33;;;;;;;0.80;0.80;;;;;;;;;;1839032;77;26307;-43
2022/03/09 00:41:02;;;;;;;0.80;0.80;;;;;;;;;;1826692;77;26806;-47
2022/03/09 00:43:29;;;;;;;0.90;0.90;;;;;;;;;;1835746;77;26274;-42
2022/03/09 00:45:57;;;;;;;0.85;0.85;;;;;;;;;;1839961;77;26267;-44
2022/03/09 00:48:24;;;;;;;0.90;0.90;;;;;;;;;;1848496;77;26400;-43
2022/03/09 00:50:52;;;;;;;0.70;0.70;;;;;;;;;;1848565;77;26275;-44
2022/03/09 00:53:19;;;;;;;0.70;0.70;;;;;;;;;;1832352;77;26819;-44
2022/03/09 00:55:46;;;;;;;0.70;0.70;;;;;;;;;;1848376;77;26384;-42
2022/03/09 00:58:13;;;;;;;0.80;0.80;;;;;;;;;;1840277;77;26344;-41
2022/03/09 01:00:41;;;;;;;0.80;0.80;;;;;;;;;;1838102;77;26325;-43
2022/03/09 01:03:08;;;;;;;0.80;0.80;;;;;;;;;;1847732;76;26350;-42
2022/03/09 01:05:35;;;;;;;2.15;0.80;;;;;;;;;;1831018;76;26352;-42
2022/03/09 01:08:03;;;;;;;0.80;0.80;;;;;;;;;;1818402;77;26285;-47
2022/03/09 01:10:30;;;;;;;0.80;0.80;;;;;;;;;;1829393;77;26256;-45
2022/03/09 01:12:57;;;;;;;0.82;0.80;;;;;;;;;;1828521;77;25881;-40
2022/03/09 01:15:25;;;;;;;0.78;0.78;;;;;;;;;;1834588;76;26853;-42
2022/03/09 01:17:52;;;;;;;0.75;0.75;;;;;;;;;;1832835;76;26385;-42
2022/03/09 01:20:20;;;;;;;0.82;0.82;;;;;;;;;;1820894;77;26341;-45
2022/03/09 01:22:47;;;;;;;0.68;0.68;;;;;;;;;;1848881;77;26702;-44
2022/03/09 01:25:14;;;;;;;0.93;0.90;;;;;;;;;;1848407;77;26255;-41
2022/03/09 01:27:42;;;;;;;0.62;0.62;;;;;;;;;;1836940;77;26275;-42
2022/03/09 01:30:10;;;;;;;0.80;0.80;;;;;;;;;;1835870;77;26380;-41
2022/03/09 01:32:37;;;;;;;0.90;0.90;;;;;;;;;;1833243;76;25629;-42
2022/03/09 01:35:05;;;;;;;1.00;0.90;;;;;;;;;;1843941;77;26393;-46
2022/03/09 01:37:32;;;;;;;0.80;0.80;;;;;;;;;;1849189;77;26728;-41
2022/03/09 01:39:59;;;;;;;1.47;0.85;;;;;;;;;;1838513;76;26743;-43
2022/03/09 01:42:27;;;;;;;0.70;0.70;;;;;;;;;;1821300;76;26682;-42
2022/03/09 01:44:54;;;;;;;0.68;0.68;;;;;;;;;;1848207;77;26247;-42
2022/03/09 01:47:21;;;;;;;0.90;0.90;;;;;;;;;;1849096;76;26204;-42
2022/03/09 01:49:48;;;;;;;0.80;0.80;;;;;;;;;;1827565;76;26321;-47
2022/03/09 01:52:16;;;;;;;1.32;0.78;;;;;;;;;;1849479;76;26299;-46
2022/03/09 01:54:44;;;;;;;0.70;0.70;;;;;;;;;;1843395;76;26291;-42
2022/03/09 01:57:12;;;;;;;0.82;0.82;;;;;;;;;;1851411;76;26275;-44
2022/03/09 01:59:39;;;;;;;0.75;0.75;;;;;;;;;;1845472;77;26277;-42
2022/03/09 02:02:06;;;;;;;0.70;0.70;;;;;;;;;;1850955;76;26341;-44
2022/03/09 02:04:33;;;;;;;0.88;0.88;;;;;;;;;;1839684;76;26286;-43
2022/03/09 02:07:01;;;;;;;0.80;0.80;;;;;;;;;;1823946;76;26285;-42
2022/03/09 02:09:47;;;;;;;0.90;0.90;;;;;;;;;;1820884;76;26777;-44
2022/03/09 02:12:15;;;;;;;0.90;0.90;;;;;;;;;;1851017;77;26744;-46
2022/03/09 02:14:44;;;;;;;0.80;0.80;;;;;;;;;;1851214;76;26900;-42
2022/03/09 02:17:16;;;;;;;0.80;0.80;;;;;;;;;;1846934;76;26267;-44
2022/03/09 02:19:44;;;;;;;0.80;0.80;;;;;;;;;;1835958;76;26309;-44
2022/03/09 02:22:22;;;;;;;0.70;0.70;;;;;;;;;;1824953;76;26785;-45
2022/03/09 02:24:51;;;;;;;0.70;0.70;;;;;;;;;;1840067;76;26396;-43
2022/03/09 02:27:21;;;;;;;0.82;0.82;;;;;;;;;;1839436;76;26272;-42
2022/03/09 02:29:49;;;;;;;0.80;0.80;;;;;;;;;;1851296;77;26274;-43
2022/03/09 02:32:17;;;;;;;0.70;0.70;;;;;;;;;;1850141;76;26292;-48
2022/03/09 02:34:44;;;;;;;0.80;0.80;;;;;;;;;;1850970;77;26377;-41
2022/03/09 02:37:12;;;;;;;0.80;0.80;;;;;;;;;;1836804;77;26326;-46
2022/03/09 02:39:39;;;;;;;0.85;0.85;;;;;;;;;;1849834;76;26275;-47
2022/03/09 02:42:07;;;;;;;0.80;0.80;;;;;;;;;;1826038;76;26344;-45
2022/03/09 02:44:34;;;;;;;0.70;0.70;;;;;;;;;;1827818;76;26306;-43
2022/03/09 02:47:01;;;;;;;0.88;0.88;;;;;;;;;;1851787;77;26321;-46
2022/03/09 02:49:28;;;;;;;0.70;0.70;;;;;;;;;;1831153;76;26340;-43
2022/03/09 02:51:56;;;;;;;0.78;0.78;;;;;;;;;;1847502;76;26333;-42
2022/03/09 02:54:23;;;;;;;0.70;0.70;;;;;;;;;;1834440;76;26383;-43
2022/03/09 02:56:51;;;;;;;0.70;0.70;;;;;;;;;;1839542;76;26326;-41
2022/03/09 02:59:18;;;;;;;0.78;0.78;;;;;;;;;;1823962;76;26246;-41
2022/03/09 03:01:45;;;;;;;0.80;0.80;;;;;;;;;;1852937;76;26305;-47
2022/03/09 03:04:12;;;;;;;0.68;0.68;;;;;;;;;;1846050;76;26329;-42
2022/03/09 03:06:40;;;;;;;0.70;0.70;;;;;;;;;;1830221;76;26285;-45
2022/03/09 03:09:07;;;;;;;0.80;0.80;;;;;;;;;;1838053;76;26274;-43
2022/03/09 03:11:34;;;;;;;0.78;0.78;;;;;;;;;;1820792;77;26298;-44
2022/03/09 03:14:02;;;;;;;0.62;0.62;;;;;;;;;;1836812;76;26303;-41
2022/03/09 03:16:29;;;;;;;0.90;0.90;;;;;;;;;;1851018;76;26263;-47
2022/03/09 03:18:56;;;;;;;0.80;0.80;;;;;;;;;;1850494;77;26267;-45
2022/03/09 03:21:23;;;;;;;0.70;0.70;;;;;;;;;;1853402;76;26353;-44
2022/03/09 03:23:51;;;;;;;0.70;0.70;;;;;;;;;;1866398;76;26271;-44
2022/03/09 03:26:18;;;;;;;0.80;0.80;;;;;;;;;;1850679;76;26362;-45
2022/03/09 03:28:45;;;;;;;0.78;0.78;;;;;;;;;;1845091;78;26273;-44
2022/03/09 03:31:12;;;;;;;0.70;0.70;;;;;;;;;;1844323;77;26697;-40
2022/03/09 03:33:40;;;;;;;0.70;0.70;;;;;;;;;;1815923;79;26352;-42
2022/03/09 03:36:07;;;;;;;0.80;0.80;;;;;;;;;;1823075;76;26307;-41
2022/03/09 03:38:34;;;;;;;0.80;0.72;;;;;;;;;;1857175;76;26286;-41
2022/03/09 03:41:01;;;;;;;0.80;0.80;;;;;;;;;;1853563;76;26364;-46
2022/03/09 03:43:29;;;;;;;0.80;0.80;;;;;;;;;;1858246;76;26212;-45
2022/03/09 03:45:56;;;;;;;0.80;0.80;;;;;;;;;;1836710;76;26206;-43
2022/03/09 03:48:23;;;;;;;0.85;0.85;;;;;;;;;;1840978;76;26174;-42
2022/03/09 03:50:51;;;;;;;0.70;0.70;;;;;;;;;;1847420;76;26345;-44
2022/03/09 03:53:18;;;;;;;0.70;0.70;;;;;;;;;;1852514;77;26766;-44
2022/03/09 03:55:45;;;;;;;0.80;0.80;;;;;;;;;;1865060;76;26314;-41
2022/03/09 03:58:13;;;;;;;0.93;0.70;;;;;;;;;;1846514;77;26745;-41
2022/03/09 04:00:40;;;;;;;1.27;0.95;;;;;;;;;;1851905;77;26271;-41
2022/03/09 04:03:07;;;;;;;0.70;0.70;;;;;;;;;;1834212;76;26329;-40
2022/03/09 04:05:35;;;;;;;0.85;0.60;;;;;;;;;;1849687;76;26275;-41
2022/03/09 04:08:02;;;;;;;0.80;0.80;;;;;;;;;;1835355;77;26293;-40
2022/03/09 04:10:29;;;;;;;0.70;0.70;;;;;;;;;;1832336;76;26802;-47
2022/03/09 04:13:03;;;;;;;0.70;0.70;;;;;;;;;;1838981;76;26958;-45
2022/03/09 04:15:29;;;;;;;0.80;0.80;;;;;;;;;;1851722;76;26223;-42
2022/03/09 04:17:56;;;;;;;0.90;0.90;;;;;;;;;;1852405;77;26335;-40
2022/03/09 04:20:23;;;;;;;0.80;0.80;;;;;;;;;;1852295;77;26266;-41
2022/03/09 04:22:51;;;;;;;0.70;0.70;;;;;;;;;;1852226;77;26219;-40
2022/03/09 04:25:18;;;;;;;0.82;0.82;;;;;;;;;;1826008;76;26281;-41
2022/03/09 04:27:46;;;;;;;0.85;0.85;;;;;;;;;;1841642;77;26275;-40
2022/03/09 04:30:13;;;;;;;0.80;0.80;;;;;;;;;;1850015;76;26232;-48
2022/03/09 04:32:40;;;;;;;0.85;0.85;;;;;;;;;;1848385;76;26303;-41
2022/03/09 04:35:08;;;;;;;0.68;0.68;;;;;;;;;;1851089;76;26281;-41
2022/03/09 04:37:35;;;;;;;0.90;0.90;;;;;;;;;;1842875;77;26779;-45
2022/03/09 04:40:03;;;;;;;0.62;0.62;;;;;;;;;;1838124;77;26258;-40
2022/03/09 04:42:31;;;;;;;0.70;0.70;;;;;;;;;;1847531;77;26285;-44
2022/03/09 04:44:58;;;;;;;0.78;0.78;;;;;;;;;;1844543;76;26281;-41
2022/03/09 04:47:25;;;;;;;0.80;0.80;;;;;;;;;;1839541;77;26349;-45
2022/03/09 04:49:53;;;;;;;0.80;0.80;;;;;;;;;;1846654;77;26329;-48
2022/03/09 04:52:20;;;;;;;0.80;0.80;;;;;;;;;;1847558;77;26357;-45
2022/03/09 04:54:48;;;;;;;0.75;0.68;;;;;;;;;;1839628;77;26311;-47
2022/03/09 04:57:15;;;;;;;0.70;0.70;;;;;;;;;;1840207;77;26208;-45
2022/03/09 04:59:42;;;;;;;0.60;0.60;;;;;;;;;;1844681;77;26266;-43
2022/03/09 05:02:10;;;;;;;0.80;0.80;;;;;;;;;;1843596;77;26703;-41
2022/03/09 05:04:37;;;;;;;0.70;0.70;;;;;;;;;;1848685;77;26321;-45
2022/03/09 05:07:04;;;;;;;0.70;0.70;;;;;;;;;;1835106;77;26296;-40
2022/03/09 05:09:32;;;;;;;0.70;0.70;;;;;;;;;;1843218;76;26271;-40
2022/03/09 05:12:00;;;;;;;0.88;0.88;;;;;;;;;;1836532;76;26824;-42
2022/03/09 05:14:27;;;;;;;0.68;0.68;;;;;;;;;;1843952;76;26334;-43
2022/03/09 05:16:54;;;;;;;2.27;0.85;;;;;;;;;;1849940;76;27233;-41
2022/03/09 05:19:22;;;;;;;1.20;1.10;;;;;;;;;;1848907;76;27152;-44
2022/03/09 05:21:50;;;;;;;1.72;1.50;;;;;;;;;;1857520;76;26316;-45
2022/03/09 05:24:17;;;;;;;5.78;1.30;;;;;;;;;;1850900;76;26988;-45
2022/03/09 05:26:47;;;;;;;1.55;1.40;;;;;;;;;;1852208;76;26262;-41
2022/03/09 05:29:15;;;;;;;3.10;1.30;;;;;;;;;;1833064;76;26332;-44
2022/03/09 05:31:44;;;;;;;1.57;1.47;;;;;;;;;;1836423;76;26294;-42
2022/03/09 05:34:12;;;;;;;2.87;1.55;;;;;;;;;;1847995;76;26302;-45
2022/03/09 05:36:40;;;;;;;5.00;1.30;;;;;;;;;;1844252;76;26373;-45
2022/03/09 05:39:07;;;;;;;12.98;1.50;;;;;;;;;;1829793;76;26348;-45
2022/03/09 05:41:35;;;;;;;5.17;1.92;;;;;;;;;;1818213;76;26335;-43
2022/03/09 05:44:02;;;;;;;1.75;1.40;;;;;;;;;;1829262;78;26279;-43
2022/03/09 05:46:30;;;;;;;4.53;1.40;;;;;;;;;;1833381;76;26242;-44
2022/03/09 05:48:57;;;;;;;4.30;1.30;;;;;;;;;;1823994;76;26267;-47
2022/03/09 05:51:25;;;;;;;2.62;1.32;;;;;;;;;;1831988;78;26978;-43
2022/03/09 05:53:52;;;;;;;4.12;1.50;;;;;;;;;;1829819;76;26356;-42
2022/03/09 05:56:19;;;;;;;2.47;1.10;;;;;;;;;;1835957;76;26849;-46
2022/03/09 05:58:47;;;;;;;1.87;1.50;;;;;;;;;;1830790;77;26713;-42
2022/03/09 06:01:14;;;;;;;3.17;1.22;;;;;;;;;;1836823;76;26845;-42
2022/03/09 06:03:41;;;;;;;3.35;1.70;;;;;;;;;;1825654;78;26333;-42
2022/03/09 06:06:08;;;;;;;1.87;1.20;;;;;;;;;;1825202;78;26212;-42
2022/03/09 06:08:36;;;;;;;5.97;1.30;;;;;;;;;;1832901;76;26340;-43
2022/03/09 06:11:03;;;;;;;2.15;1.05;;;;;;;;;;1835632;78;26212;-44
2022/03/09 06:13:31;;;;;;;1.85;1.02;;;;;;;;;;1834325;76;26266;-41
2022/03/09 06:15:58;;;;;;;1.98;1.20;;;;;;;;;;1835799;78;25610;-43
2022/03/09 06:18:25;;;;;;;4.80;1.50;;;;;;;;;;1821357;78;26307;-45
2022/03/09 06:20:52;;;;;;;3.15;1.00;;;;;;;;;;1834204;78;26724;-42
2022/03/09 06:23:20;;;;;;;5.37;1.40;;;;;;;;;;1836649;76;26521;-48
2022/03/09 06:25:47;;;;;;;5.08;1.25;;;;;;;;;;1832880;78;26256;-44
2022/03/09 06:28:15;;;;;;;1.15;1.07;;;;;;;;;;1832798;78;26273;-42
2022/03/09 06:30:42;;;;;;;5.42;1.10;;;;;;;;;;1842699;78;26377;-48
2022/03/09 06:33:10;;;;;;;1.52;1.00;;;;;;;;;;1818395;78;26425;-46
2022/03/09 06:35:37;;;;;;;8.40;1.40;;;;;;;;;;1841977;78;26346;-50
2022/03/09 06:38:05;;;;;;;3.20;1.35;;;;;;;;;;1822467;77;25868;-42
2022/03/09 06:40:32;;;;;;;3.02;1.32;;;;;;;;;;1824558;77;26225;-41
2022/03/09 06:43:00;;;;;;;2.40;1.67;;;;;;;;;;1847003;77;26288;-44
2022/03/09 06:45:28;;;;;;;29.65;2.67;;;;;;;;;;1843535;77;26282;-45
2022/03/09 06:47:55;;;;;;;26.90;3.00;;;;;;;;;;1845613;77;27488;-43
2022/03/09 06:50:22;;;;;;;21.10;2.40;;;;;;;;;;1849257;77;26299;-44
2022/03/09 06:52:50;;;;;;;13.40;2.40;;;;;;;;;;1849456;77;26289;-42
2022/03/09 06:55:17;;;;;;;30.10;2.62;;;;;;;;;;1849892;77;26319;-42
2022/03/09 06:57:45;;;;;;;18.02;2.00;;;;;;;;;;1849793;77;25342;-44
2022/03/09 07:00:14;;;;;;;12.70;1.87;;;;;;;;;;1847791;76;26290;-42
2022/03/09 07:02:42;;;;;;;11.45;1.77;;;;;;;;;;1836545;76;26344;-47
2022/03/09 07:05:10;;;;;;;9.58;1.95;;;;;;;;;;1832166;76;26394;-46
2022/03/09 07:07:38;;;;;;;11.33;2.40;;;;;;;;;;1829750;76;26903;-51
2022/03/09 07:10:10;;;;;;;6.53;1.57;;;;;;;;;;1829065;76;26341;-46
2022/03/09 07:12:35;;;;;;;6.40;1.60;;;;;;;;;;1838142;76;26283;-48
2022/03/09 07:15:02;;;;;;;7.22;1.77;;;;;;;;;;1844087;77;26271;-50
2022/03/09 07:17:30;;;;;;;7.35;1.60;;;;;;;;;;1838396;76;26277;-47
2022/03/09 07:19:57;;;;;;;4.00;1.50;;;;;;;;;;1836748;76;26331;-45
2022/03/09 07:22:25;;;;;;;7.78;1.70;;;;;;;;;;1830483;76;26343;-47
2022/03/09 07:24:52;;;;;;;5.70;1.45;;;;;;;;;;1835605;76;26259;-45
2022/03/09 07:27:19;;;;;;;6.90;1.42;;;;;;;;;;1835426;76;26263;-48
2022/03/09 07:29:46;;;;;;;2.92;1.60;;;;;;;;;;1845751;77;26271;-47
2022/03/09 07:32:14;;;;;;;2.90;1.30;;;;;;;;;;1843739;77;26341;-46
2022/03/09 07:34:42;;;;;;;5.95;1.72;;;;;;;;;;1832751;76;26317;-49
2022/03/09 07:37:09;;;;;;;3.02;1.50;;;;;;;;;;1832739;77;26345;-45
2022/03/09 07:39:37;;;;;;;1.40;1.30;;;;;;;;;;1827247;76;26295;-45
2022/03/09 07:42:05;;;;;;;3.02;1.22;;;;;;;;;;1829984;76;26353;-46
2022/03/09 07:44:32;;;;;;;2.05;1.30;;;;;;;;;;1833008;78;26785;-48
2022/03/09 07:47:00;;;;;;;1.42;1.30;;;;;;;;;;1831099;78;26291;-47
2022/03/09 07:49:27;;;;;;;2.30;1.42;;;;;;;;;;1830869;78;26715;-49
2022/03/09 07:51:55;;;;;;;1.15;1.05;;;;;;;;;;1830001;78;26271;-45
2022/03/09 07:54:22;;;;;;;2.45;1.20;;;;;;;;;;1827410;78;26377;-48
2022/03/09 07:56:49;;;;;;;2.30;1.10;;;;;;;;;;1833333;78;26312;-49
2022/03/09 07:59:16;;;;;;;3.15;1.17;;;;;;;;;;1834268;78;26301;-51
2022/03/09 08:01:44;;;;;;;1.95;1.20;;;;;;;;;;1837909;78;26295;-51
2022/03/09 08:04:11;;;;;;;1.35;1.27;;;;;;;;;;1830718;78;26361;-49
2022/03/09 08:06:40;;;;;;;1.40;1.10;;;;;;;;;;1833280;78;26275;-48
2022/03/09 08:09:08;;;;;;;2.40;1.30;;;;;;;;;;1830796;78;26365;-47
2022/03/09 08:11:35;;;;;;;1.10;1.10;;;;;;;;;;1822101;78;26331;-44
2022/03/09 08:14:02;;;;;;;1.47;1.15;;;;;;;;;;1833940;78;26836;-43
2022/03/09 08:16:30;;;;;;;0.93;0.93;;;;;;;;;;1839519;78;26668;-43
2022/03/09 08:18:57;;;;;;;3.22;0.93;;;;;;;;;;1840765;78;26809;-47
2022/03/09 08:21:24;;;;;;;0.88;0.88;;;;;;;;;;1827696;78;26272;-48
2022/03/09 08:23:52;;;;;;;1.00;1.00;;;;;;;;;;1833829;78;26272;-48
2022/03/09 08:26:19;;;;;;;2.00;1.00;;;;;;;;;;1841829;78;26279;-47
2022/03/09 08:28:47;;;;;;;0.90;0.90;;;;;;;;;;1840494;76;26349;-47
2022/03/09 08:31:14;;;;;;;0.95;0.90;;;;;;;;;;1834029;76;26291;-50
2022/03/09 08:33:42;;;;;;;1.30;0.95;;;;;;;;;;1830014;78;26354;-47
2022/03/09 08:36:15;;;;;;;1.00;0.90;;;;;;;;;;1830315;78;26396;-46
2022/03/09 08:38:39;;;;;;;0.80;0.80;;;;;;;;;;1832080;78;26861;-48
2022/03/09 08:41:06;;;;;;;0.90;0.90;;;;;;;;;;1827622;78;26336;-49
2022/03/09 08:43:33;;;;;;;1.07;1.00;;;;;;;;;;1824245;76;26683;-47
2022/03/09 08:46:00;;;;;;;2.12;0.90;;;;;;;;;;1831161;76;26391;-47
2022/03/09 08:48:28;;;;;;;0.85;0.85;;;;;;;;;;1825645;76;26295;-51
2022/03/09 08:50:55;;;;;;;0.80;0.80;;;;;;;;;;1830149;76;26357;-51
2022/03/09 08:53:23;;;;;;;0.93;0.90;;;;;;;;;;1827692;76;26227;-48
2022/03/09 08:55:50;;;;;;;4.17;0.90;;;;;;;;;;1834875;76;26301;-47
2022/03/09 08:58:17;;;;;;;2.05;0.80;;;;;;;;;;1828657;76;26334;-48
2022/03/09 09:00:44;;;;;;;1.25;1.00;;;;;;;;;;1827155;78;26282;-46
2022/03/09 09:03:12;;;;;;;1.65;0.90;;;;;;;;;;1840579;78;26704;-46
2022/03/09 09:05:39;;;;;;;0.72;0.72;;;;;;;;;;1835298;78;26723;-47
2022/03/09 09:08:06;;;;;;;0.68;0.68;;;;;;;;;;1830409;77;26777;-44
2022/03/09 09:10:34;;;;;;;0.80;0.80;;;;;;;;;;1839918;78;26232;-45
2022/03/09 09:13:02;;;;;;;1.15;0.75;;;;;;;;;;1813715;77;26274;-51
2022/03/09 09:15:30;;;;;;;0.70;0.70;;;;;;;;;;1841117;78;26828;-49
2022/03/09 09:18:01;;;;;;;0.80;0.80;;;;;;;;;;1830994;78;26284;-47
2022/03/09 09:20:28;;;;;;;1.22;0.85;;;;;;;;;;1834231;78;26364;-49
2022/03/09 09:22:57;;;;;;;1.37;0.82;;;;;;;;;;1842341;78;26301;-44
2022/03/09 09:25:25;;;;;;;1.80;0.90;;;;;;;;;;1833768;76;26808;-48
2022/03/09 09:27:53;;;;;;;3.92;0.80;;;;;;;;;;1829112;76;26260;-54
2022/03/09 09:30:21;;;;;;;4.55;0.98;;;;;;;;;;1841406;76;26271;-52
2022/03/09 09:32:49;;;;;;;0.95;0.95;;;;;;;;;;1836875;78;26801;-53
2022/03/09 09:35:17;;;;;;;1.22;1.12;;;;;;;;;;1813893;78;26751;-52
2022/03/09 09:37:46;;;;;;;1.37;1.02;;;;;;;;;;1842171;76;26562;-50
2022/03/09 09:40:14;;;;;;;2.83;1.10;;;;;;;;;;1838676;77;26400;-46
2022/03/09 09:42:42;;;;;;;1.65;1.10;;;;;;;;;;1837420;76;26295;-45
2022/03/09 09:45:10;;;;;;;1.75;1.20;;;;;;;;;;1856088;76;26356;-50
2022/03/09 09:47:38;;;;;;;3.50;1.00;;;;;;;;;;1847880;76;26301;-51
2022/03/09 09:50:13;;;;;;;4.95;1.15;;;;;;;;;;1847491;77;26942;-49
2022/03/09 09:52:37;;;;;;;4.83;0.98;;;;;;;;;;1842101;76;26227;-49
2022/03/09 09:55:07;;;;;;;2.37;1.10;;;;;;;;;;1838766;77;26219;-44
2022/03/09 09:57:35;;;;;;;2.35;1.00;;;;;;;;;;1835935;77;26208;-49
2022/03/09 10:00:04;;;;;;;1.12;1.00;;;;;;;;;;1841462;76;25388;-47
2022/03/09 10:02:31;;;;;;;4.80;1.30;;;;;;;;;;1846447;76;28246;-50
2022/03/09 10:04:59;;;;;;;1.30;1.00;;;;;;;;;;1846369;76;26298;-57
2022/03/09 10:07:27;;;;;;;6.17;1.15;;;;;;;;;;1832002;76;26244;-49
2022/03/09 10:09:54;;;;;;;1.52;1.07;;;;;;;;;;1834003;77;26356;-45
2022/03/09 10:12:29;;;;;;;1.12;1.00;;;;;;;;;;1840407;76;26299;-47
2022/03/09 10:14:56;;;;;;;1.42;1.30;;;;;;;;;;1844118;76;26317;-47
2022/03/09 10:17:30;;;;;;;2.90;1.00;;;;;;;;;;1847324;76;26302;-52
2022/03/09 10:20:00;;;;;;;5.70;1.00;;;;;;;;;;1828949;76;26264;-49
2022/03/09 10:22:35;;;;;;;1.90;1.02;;;;;;;;;;1841078;76;26314;-60
2022/03/09 10:25:13;;;;;;;1.75;1.10;;;;;;;;;;1850136;76;27089;-44
2022/03/09 10:27:45;;;;;;;1.10;1.00;;;;;;;;;;1845781;76;25704;-45
2022/03/09 10:30:14;;;;;;;3.00;1.10;;;;;;;;;;1840963;76;26719;-45
2022/03/09 10:32:45;;;;;;;2.85;1.30;;;;;;;;;;1836528;77;26348;-43
2022/03/09 10:35:14;;;;;;;1.95;0.93;;;;;;;;;;1847354;76;26720;-45
2022/03/09 10:37:42;;;;;;;1.05;1.05;;;;;;;;;;1836338;77;26793;-45
2022/03/09 10:40:11;;;;;;;1.20;0.80;;;;;;;;;;1820781;77;26347;-43
2022/03/09 10:42:38;;;;;;;0.90;0.90;;;;;;;;;;1828814;77;26279;-46
2022/03/09 10:45:09;;;;;;;1.00;0.90;;;;;;;;;;1828854;77;26364;-48
2022/03/09 10:47:38;;;;;;;2.37;1.15;;;;;;;;;;1838506;77;26218;-47
2022/03/09 10:50:18;;;;;;;1.47;1.05;;;;;;;;;;1834528;77;26328;-48
2022/03/09 10:52:47;;;;;;;1.65;1.20;;;;;;;;;;1828679;77;26770;-47
2022/03/09 10:55:21;;;;;;;3.77;1.30;;;;;;;;;;1843607;77;26756;-48
2022/03/09 10:57:50;;;;;;;3.05;1.25;;;;;;;;;;1840996;77;26751;-53
2022/03/09 11:00:19;;;;;;;1.37;1.20;;;;;;;;;;1840468;77;26743;-47
2022/03/09 11:02:50;;;;;;;3.67;1.60;;;;;;;;;;1835476;77;26388;-52
2022/03/09 11:05:20;;;;;;;5.17;1.80;;;;;;;;;;1839703;77;26710;-47
2022/03/09 11:07:47;;;;;;;3.08;1.60;;;;;;;;;;1846029;76;26353;-48
2022/03/09 11:10:14;;;;;;;4.25;1.75;;;;;;;;;;1844580;76;27047;-50
2022/03/09 11:12:42;;;;;;;7.40;2.02;;;;;;;;;;1819144;77;26325;-53
2022/03/09 11:15:12;;;;;;;6.50;2.77;;;;;;;;;;1837204;76;26404;-50
2022/03/09 11:17:40;;;;;;;3.33;2.35;;;;;;;;;;1829596;77;26239;-50
2022/03/09 11:20:08;;;;;;;3.67;2.15;;;;;;;;;;1830064;77;26289;-47
2022/03/09 11:22:36;;;;;;;8.98;2.60;;;;;;;;;;1848929;77;26333;-51
2022/03/09 11:25:05;;;;;;;6.15;2.83;;;;;;;;;;1839944;77;26255;-46
2022/03/09 11:27:33;;;;;;;6.08;2.67;;;;;;;;;;1838036;77;26389;-49
2022/03/09 11:30:01;;;;;;;10.38;2.95;;;;;;;;;;1840149;76;26325;-45
2022/03/09 11:32:35;;;;;;;14.53;3.35;;;;;;;;;;1834443;77;26357;-50
2022/03/09 11:35:06;;;;;;;19.50;3.75;;;;;;;;;;1837160;77;26365;-50
2022/03/09 11:37:36;;;;;;;20.50;3.27;;;;;;;;;;1844275;77;26298;-46
2022/03/09 11:40:12;;;;;;;7.87;3.12;;;;;;;;;;1839981;76;26262;-47
2022/03/09 11:42:44;;;;;;;9.43;2.98;;;;;;;;;;1840046;77;26309;-47
2022/03/09 11:45:16;;;;;;;10.45;3.10;;;;;;;;;;1848110;76;26393;-52
2022/03/09 11:48:00;;;;;;;13.22;3.08;;;;;;;;;;1839992;76;26708;-49
2022/03/09 11:50:29;;;;;;;5.92;2.75;;;;;;;;;;1846309;76;26327;-49
2022/03/09 11:53:06;;;;;;;10.63;3.08;;;;;;;;;;1844912;77;26275;-55
2022/03/09 11:55:35;;;;;;;11.53;2.85;;;;;;;;;;1846751;76;26687;-51
2022/03/09 11:58:05;;;;;;;11.38;2.75;;;;;;;;;;1850015;77;26298;-52
2022/03/09 12:00:33;;;;;;;16.35;2.95;;;;;;;;;;1821607;77;26776;-50
2022/03/09 12:03:00;;;;;;;15.63;3.15;;;;;;;;;;1858116;76;26287;-47
2022/03/09 12:05:29;;;;;;;7.20;2.27;;;;;;;;;;1840118;76;26338;-44
2022/03/09 12:07:58;;;;;;;7.83;2.30;;;;;;;;;;1838058;77;26348;-50
2022/03/09 12:10:45;;;;;;;6.22;2.50;;;;;;;;;;1854766;76;26273;-48
2022/03/09 12:13:17;;;;;;;9.15;2.22;;;;;;;;;;1838320;76;26212;-47
2022/03/09 12:16:01;;;;;;;4.35;2.20;;;;;;;;;;1842849;76;26357;-46
2022/03/09 12:18:46;;;;;;;6.83;2.08;;;;;;;;;;1837527;76;26656;-51
2022/03/09 12:21:15;;;;;;;6.97;2.10;;;;;;;;;;1839436;76;26307;-51
2022/03/09 12:24:03;;;;;;;7.75;1.90;;;;;;;;;;1847175;76;26268;-53
2022/03/09 12:26:43;;;;;;;3.60;1.77;;;;;;;;;;1824115;77;26252;-51
2022/03/09 12:29:31;;;;;;;4.87;1.90;;;;;;;;;;1837389;76;26294;-50
2022/03/09 12:32:02;;;;;;;3.67;1.77;;;;;;;;;;1847781;76;26292;-46
2022/03/09 12:34:31;;;;;;;5.72;2.22;;;;;;;;;;1839449;77;26248;-50
2022/03/09 12:36:59;;;;;;;2.05;1.40;;;;;;;;;;1827389;76;26270;-50
2022/03/09 12:39:26;;;;;;;3.87;1.80;;;;;;;;;;1840776;76;26271;-46
2022/03/09 12:41:55;;;;;;;6.28;1.50;;;;;;;;;;1839394;76;26346;-49
2022/03/09 12:44:23;;;;;;;2.12;1.70;;;;;;;;;;1845558;76;26286;-51
2022/03/09 12:46:52;;;;;;;3.60;1.50;;;;;;;;;;1833435;76;26421;-51
2022/03/09 12:49:30;;;;;;;1.70;1.32;;;;;;;;;;1831399;76;26352;-53
2022/03/09 12:51:59;;;;;;;2.83;1.70;;;;;;;;;;1828442;76;26276;-50
2022/03/09 12:54:40;;;;;;;3.60;1.30;;;;;;;;;;1839791;76;26241;-56
2022/03/09 12:57:18;;;;;;;1.65;1.27;;;;;;;;;;1839489;76;26373;-50
2022/03/09 12:59:47;;;;;;;2.15;1.37;;;;;;;;;;1828820;76;26767;-53
2022/03/09 13:02:14;;;;;;;3.95;1.27;;;;;;;;;;1840397;76;26657;-48
2022/03/09 13:04:41;;;;;;;1.32;1.30;;;;;;;;;;1848166;76;26383;-48
2022/03/09 13:07:10;;;;;;;1.10;1.00;;;;;;;;;;1842778;76;26627;-48
2022/03/09 13:09:37;;;;;;;1.90;1.30;;;;;;;;;;1848669;76;26357;-50
2022/03/09 13:12:09;;;;;;;1.42;1.20;;;;;;;;;;1839037;76;26361;-50
2022/03/09 13:14:37;;;;;;;1.20;1.10;;;;;;;;;;1848269;77;26287;-48
2022/03/09 13:17:06;;;;;;;3.75;1.20;;;;;;;;;;1830452;77;26372;-54
2022/03/09 13:19:34;;;;;;;2.70;1.05;;;;;;;;;;1808842;76;26005;-56
2022/03/09 13:22:01;;;;;;;1.92;0.93;;;;;;;;;;1842830;76;26295;-47
2022/03/09 13:24:29;;;;;;;1.12;0.90;;;;;;;;;;1841675;76;26306;-50
2022/03/09 13:26:56;;;;;;;1.00;0.90;;;;;;;;;;1833510;76;26298;-50
2022/03/09 13:29:24;;;;;;;3.50;1.00;;;;;;;;;;1830158;77;26356;-50
2022/03/09 13:32:00;;;;;;;1.00;1.00;;;;;;;;;;1836651;77;26317;-55
2022/03/09 13:34:29;;;;;;;1.60;0.90;;;;;;;;;;1825716;76;26710;-47
2022/03/09 13:37:01;;;;;;;0.82;0.78;;;;;;;;;;1834696;77;26939;-53
2022/03/09 13:39:39;;;;;;;1.85;1.32;;;;;;;;;;1838458;77;26565;-51
2022/03/09 13:42:07;;;;;;;0.80;0.80;;;;;;;;;;1841800;77;26365;-51
2022/03/09 13:44:35;;;;;;;1.50;1.00;;;;;;;;;;1829202;76;26262;-51
2022/03/09 13:47:04;;;;;;;1.07;0.90;;;;;;;;;;1842812;76;26313;-49
2022/03/09 13:49:51;;;;;;;0.90;0.90;;;;;;;;;;1836828;77;26244;-50
2022/03/09 13:52:25;;;;;;;0.70;0.68;;;;;;;;;;1837255;77;26220;-48
2022/03/09 13:54:53;;;;;;;1.52;0.90;;;;;;;;;;1832421;77;27009;-49
2022/03/09 13:57:31;;;;;;;0.80;0.80;;;;;;;;;;1846258;77;26722;-51
2022/03/09 13:59:59;;;;;;;0.80;0.80;;;;;;;;;;1845926;76;26298;-47
2022/03/09 14:02:27;;;;;;;0.80;0.80;;;;;;;;;;1851756;76;26259;-48
2022/03/09 14:04:55;;;;;;;1.37;0.88;;;;;;;;;;1836740;76;25914;-46
2022/03/09 14:07:22;;;;;;;0.68;0.68;;;;;;;;;;1842644;76;26285;-52
2022/03/09 14:10:08;;;;;;;0.70;0.70;;;;;;;;;;1840400;77;26736;-46
2022/03/09 14:12:39;;;;;;;0.80;0.80;;;;;;;;;;1844729;76;26282;-50
2022/03/09 14:15:07;;;;;;;0.60;0.60;;;;;;;;;;1843658;76;26282;-55
2022/03/09 14:17:34;;;;;;;0.62;0.62;;;;;;;;;;1842596;76;26334;-50
2022/03/09 14:20:02;;;;;;;0.70;0.70;;;;;;;;;;1849544;77;26340;-48
2022/03/09 14:22:40;;;;;;;0.62;0.62;;;;;;;;;;1844998;76;26295;-47
2022/03/09 14:25:08;;;;;;;0.62;0.62;;;;;;;;;;1844876;76;26409;-44
2022/03/09 14:27:35;;;;;;;0.70;0.70;;;;;;;;;;1842874;76;26283;-47
2022/03/09 14:30:05;;;;;;;1.20;0.78;;;;;;;;;;1845021;77;26216;-44
2022/03/09 14:32:33;;;;;;;2.70;0.80;;;;;;;;;;1841951;76;26786;-47
2022/03/09 14:35:00;;;;;;;0.70;0.70;;;;;;;;;;1852228;76;26334;-50
2022/03/09 14:37:28;;;;;;;3.40;0.72;;;;;;;;;;1824986;76;26364;-46
2022/03/09 14:39:55;;;;;;;0.70;0.70;;;;;;;;;;1849849;76;26349;-45
2022/03/09 14:42:23;;;;;;;0.50;0.50;;;;;;;;;;1834314;76;27516;-47
2022/03/09 14:44:50;;;;;;;0.62;0.62;;;;;;;;;;1852870;76;26368;-44
2022/03/09 14:47:18;;;;;;;0.70;0.70;;;;;;;;;;1861547;76;26946;-47
2022/03/09 14:49:45;;;;;;;0.60;0.60;;;;;;;;;;1838461;76;26337;-51
2022/03/09 14:52:12;;;;;;;0.70;0.70;;;;;;;;;;1841370;77;26319;-48